sensor_id;sensor_type;location;lat;lon;timestamp;pressure;altitude;pressure_sealevel;temperature;humidity
55604;BME280;41468;48.838;9.330;2023-04-25T00:00:49;97720.47;;;10.18;70.92
55604;BME280;41468;48.838;9.330;2023-04-25T00:03:16;97713.81;;;10.08;71.92
55604;BME280;41468;48.838;9.330;2023-04-25T00:05:45;97714.66;;;10.20;71.38
55604;BME280;41468;48.838;9.330;2023-04-25T00:08:12;97716.09;;;10.03;72.18
55604;BME280;41468;48.838;9.330;2023-04-25T00:10:38;97720.03;;;10.05;72.59
55604;BME280;41468;48.838;9.330;2023-04-25T00:13:05;97715.72;;;10.04;73.28
55604;BME280;41468;48.838;9.330;2023-04-25T00:15:32;97721.16;;;10.04;73.70
55604;BME280;41468;48.838;9.330;2023-04-25T00:17:59;97725.44;;;10.02;73.83
55604;BME280;41468;48.838;9.330;2023-04-25T00:20:26;97734.75;;;9.97;74.80
55604;BME280;41468;48.838;9.330;2023-04-25T00:22:52;97726.16;;;9.91;75.42
55604;BME280;41468;48.838;9.330;2023-04-25T00:25:19;97718.34;;;9.93;76.17
55604;BME280;41468;48.838;9.330;2023-04-25T00:27:46;97716.06;;;9.99;75.42
55604;BME280;41468;48.838;9.330;2023-04-25T00:30:13;97708.28;;;10.01;75.82
55604;BME280;41468;48.838;9.330;2023-04-25T00:32:40;97710.25;;;10.01;75.65
55604;BME280;41468;48.838;9.330;2023-04-25T00:35:07;97708.59;;;9.89;76.92
55604;BME280;41468;48.838;9.330;2023-04-25T00:37:34;97710.16;;;9.90;76.85
55604;BME280;41468;48.838;9.330;2023-04-25T00:40:01;97703.50;;;9.84;78.17
55604;BME280;41468;48.838;9.330;2023-04-25T00:42:28;97703.50;;;9.84;77.81
55604;BME280;41468;48.838;9.330;2023-04-25T00:44:55;97699.66;;;9.92;77.50
55604;BME280;41468;48.838;9.330;2023-04-25T00:47:22;97698.31;;;9.71;78.11
55604;BME280;41468;48.838;9.330;2023-04-25T00:49:49;97688.94;;;9.69;78.80
55604;BME280;41468;48.838;9.330;2023-04-25T00:52:16;97688.34;;;9.93;77.55
55604;BME280;41468;48.838;9.330;2023-04-25T00:54:42;97687.97;;;9.91;77.79
55604;BME280;41468;48.838;9.330;2023-04-25T00:57:09;97685.31;;;10.02;76.41
55604;BME280;41468;48.838;9.330;2023-04-25T00:59:37;97684.91;;;10.00;75.81
55604;BME280;41468;48.838;9.330;2023-04-25T01:02:04;97675.47;;;9.90;75.75
55604;BME280;41468;48.838;9.330;2023-04-25T01:04:31;97680.91;;;9.87;75.82
55604;BME280;41468;48.838;9.330;2023-04-25T01:06:58;97679.06;;;9.98;74.46
55604;BME280;41468;48.838;9.330;2023-04-25T01:09:25;97684.78;;;9.86;75.74
55604;BME280;41468;48.838;9.330;2023-04-25T01:11:52;97687.94;;;9.88;75.79
55604;BME280;41468;48.838;9.330;2023-04-25T01:14:19;97681.69;;;9.87;76.14
55604;BME280;41468;48.838;9.330;2023-04-25T01:16:46;97682.94;;;9.97;76.48
55604;BME280;41468;48.838;9.330;2023-04-25T01:19:16;97676.22;;;9.84;77.04
55604;BME280;41468;48.838;9.330;2023-04-25T01:21:44;97676.91;;;9.73;76.37
55604;BME280;41468;48.838;9.330;2023-04-25T01:24:12;97668.44;;;9.86;76.18
55604;BME280;41468;48.838;9.330;2023-04-25T01:26:40;97671.53;;;9.81;76.40
55604;BME280;41468;48.838;9.330;2023-04-25T01:29:10;97669.59;;;9.85;76.36
55604;BME280;41468;48.838;9.330;2023-04-25T01:31:37;97670.78;;;9.84;76.18
55604;BME280;41468;48.838;9.330;2023-04-25T01:34:04;97668.44;;;9.86;76.30
55604;BME280;41468;48.838;9.330;2023-04-25T01:36:31;97664.53;;;9.83;75.44
55604;BME280;41468;48.838;9.330;2023-04-25T01:38:58;97669.66;;;9.92;74.72
55604;BME280;41468;48.838;9.330;2023-04-25T01:41:25;97669.16;;;9.79;74.90
55604;BME280;41468;48.838;9.330;2023-04-25T01:43:52;97659.88;;;9.84;75.31
55604;BME280;41468;48.838;9.330;2023-04-25T01:46:19;97660.22;;;9.82;74.02
55604;BME280;41468;48.838;9.330;2023-04-25T01:48:46;97661.47;;;9.92;74.01
55604;BME280;41468;48.838;9.330;2023-04-25T01:51:12;97667.72;;;9.92;74.47
55604;BME280;41468;48.838;9.330;2023-04-25T01:53:39;97664.56;;;9.87;74.85
55604;BME280;41468;48.838;9.330;2023-04-25T01:56:06;97664.97;;;9.89;74.62
55604;BME280;41468;48.838;9.330;2023-04-25T01:58:33;97666.16;;;9.91;73.48
55604;BME280;41468;48.838;9.330;2023-04-25T02:00:59;97659.88;;;9.84;74.90
55604;BME280;41468;48.838;9.330;2023-04-25T02:03:26;97660.66;;;9.84;74.63
55604;BME280;41468;48.838;9.330;2023-04-25T02:05:53;97666.09;;;9.84;74.85
55604;BME280;41468;48.838;9.330;2023-04-25T02:08:20;97658.25;;;9.79;75.65
55604;BME280;41468;48.838;9.330;2023-04-25T02:10:46;97660.91;;;9.68;75.22
55604;BME280;41468;48.838;9.330;2023-04-25T02:13:13;97659.69;;;9.62;76.19
55604;BME280;41468;48.838;9.330;2023-04-25T02:15:40;97658.56;;;9.67;75.89
55604;BME280;41468;48.838;9.330;2023-04-25T02:18:07;97660.47;;;9.59;76.18
55604;BME280;41468;48.838;9.330;2023-04-25T02:20:36;97666.78;;;9.70;75.65
55604;BME280;41468;48.838;9.330;2023-04-25T02:23:03;97660.50;;;9.66;75.35
55604;BME280;41468;48.838;9.330;2023-04-25T02:25:30;97660.84;;;9.61;75.00
55604;BME280;41468;48.838;9.330;2023-04-25T02:27:56;97660.47;;;9.63;75.80
55604;BME280;41468;48.838;9.330;2023-04-25T02:30:23;97657.44;;;9.71;75.15
55604;BME280;41468;48.838;9.330;2023-04-25T02:32:50;97651.94;;;9.68;75.26
55604;BME280;41468;48.838;9.330;2023-04-25T02:35:17;97651.56;;;9.69;75.05
55604;BME280;41468;48.838;9.330;2023-04-25T02:37:44;97649.25;;;9.71;74.93
55604;BME280;41468;48.838;9.330;2023-04-25T02:40:11;97641.06;;;9.71;75.47
55604;BME280;41468;48.838;9.330;2023-04-25T02:42:37;97648.81;;;9.66;74.73
55604;BME280;41468;48.838;9.330;2023-04-25T02:45:04;97651.09;;;9.60;75.82
55604;BME280;41468;48.838;9.330;2023-04-25T02:47:31;97645.66;;;9.60;77.49
55604;BME280;41468;48.838;9.330;2023-04-25T02:49:58;97653.41;;;9.55;78.40
55604;BME280;41468;48.838;9.330;2023-04-25T02:52:25;97645.25;;;9.58;78.52
55604;BME280;41468;48.838;9.330;2023-04-25T02:54:51;97650.25;;;9.49;79.06
55604;BME280;41468;48.838;9.330;2023-04-25T02:57:18;97646.38;;;9.54;79.53
55604;BME280;41468;48.838;9.330;2023-04-25T02:59:45;97641.28;;;9.48;79.75
55604;BME280;41468;48.838;9.330;2023-04-25T03:02:12;97635.00;;;9.44;80.40
55604;BME280;41468;48.838;9.330;2023-04-25T03:04:38;97633.84;;;9.45;80.46
55604;BME280;41468;48.838;9.330;2023-04-25T03:07:10;97631.16;;;9.49;79.87
55604;BME280;41468;48.838;9.330;2023-04-25T03:09:37;97642.44;;;9.47;80.37
55604;BME280;41468;48.838;9.330;2023-04-25T03:12:04;97638.50;;;9.41;80.45
55604;BME280;41468;48.838;9.330;2023-04-25T03:14:37;97638.09;;;9.43;80.67
55604;BME280;41468;48.838;9.330;2023-04-25T03:17:04;97635.78;;;9.45;80.86
55604;BME280;41468;48.838;9.330;2023-04-25T03:19:30;97637.38;;;9.46;80.68
55604;BME280;41468;48.838;9.330;2023-04-25T03:21:57;97630.69;;;9.40;80.52
55604;BME280;41468;48.838;9.330;2023-04-25T03:24:24;97620.63;;;9.47;80.53
55604;BME280;41468;48.838;9.330;2023-04-25T03:26:50;97630.31;;;9.41;80.58
55604;BME280;41468;48.838;9.330;2023-04-25T03:29:17;97617.47;;;9.42;80.92
55604;BME280;41468;48.838;9.330;2023-04-25T03:31:44;97624.09;;;9.41;80.73
55604;BME280;41468;48.838;9.330;2023-04-25T03:34:15;97614.75;;;9.42;81.11
55604;BME280;41468;48.838;9.330;2023-04-25T03:36:42;97623.25;;;9.37;81.20
55604;BME280;41468;48.838;9.330;2023-04-25T03:39:09;97632.28;;;9.44;81.21
55604;BME280;41468;48.838;9.330;2023-04-25T03:41:35;97636.09;;;9.36;81.11
55604;BME280;41468;48.838;9.330;2023-04-25T03:44:02;97640.78;;;9.36;81.69
55604;BME280;41468;48.838;9.330;2023-04-25T03:46:29;97633.63;;;9.20;83.39
55604;BME280;41468;48.838;9.330;2023-04-25T03:48:55;97634.47;;;9.28;83.21
55604;BME280;41468;48.838;9.330;2023-04-25T03:51:22;97630.59;;;9.29;83.13
55604;BME280;41468;48.838;9.330;2023-04-25T03:53:59;97637.56;;;9.26;83.43
55604;BME280;41468;48.838;9.330;2023-04-25T03:56:26;97630.66;;;9.36;82.78
55604;BME280;41468;48.838;9.330;2023-04-25T03:58:53;97630.56;;;9.25;83.23
55604;BME280;41468;48.838;9.330;2023-04-25T04:01:19;97630.66;;;9.36;82.42
55604;BME280;41468;48.838;9.330;2023-04-25T04:03:46;97629.00;;;9.24;82.80
55604;BME280;41468;48.838;9.330;2023-04-25T04:06:13;97627.50;;;9.31;82.59
55604;BME280;41468;48.838;9.330;2023-04-25T04:08:40;97622.03;;;9.27;80.99
55604;BME280;41468;48.838;9.330;2023-04-25T04:11:07;97626.75;;;9.34;80.31
55604;BME280;41468;48.838;9.330;2023-04-25T04:13:33;97632.63;;;9.39;80.13
55604;BME280;41468;48.838;9.330;2023-04-25T04:16:00;97625.22;;;9.40;79.85
55604;BME280;41468;48.838;9.330;2023-04-25T04:18:27;97624.44;;;9.39;79.53
55604;BME280;41468;48.838;9.330;2023-04-25T04:20:53;97628.72;;;9.37;79.45
55604;BME280;41468;48.838;9.330;2023-04-25T04:23:20;97633.03;;;9.38;78.96
55604;BME280;41468;48.838;9.330;2023-04-25T04:25:49;97631.00;;;9.31;80.03
55604;BME280;41468;48.838;9.330;2023-04-25T04:28:15;97633.66;;;9.24;79.83
55604;BME280;41468;48.838;9.330;2023-04-25T04:30:42;97637.22;;;9.32;79.75
55604;BME280;41468;48.838;9.330;2023-04-25T04:33:12;97636.47;;;9.35;79.63
55604;BME280;41468;48.838;9.330;2023-04-25T04:35:39;97648.63;;;9.41;78.40
55604;BME280;41468;48.838;9.330;2023-04-25T04:38:06;97641.25;;;9.45;78.35
55604;BME280;41468;48.838;9.330;2023-04-25T04:40:32;97638.75;;;9.29;78.69
55604;BME280;41468;48.838;9.330;2023-04-25T04:42:59;97645.47;;;9.39;79.41
55604;BME280;41468;48.838;9.330;2023-04-25T04:45:26;97639.56;;;9.29;79.52
55604;BME280;41468;48.838;9.330;2023-04-25T04:47:54;97639.25;;;9.38;79.71
55604;BME280;41468;48.838;9.330;2023-04-25T04:50:21;97649.38;;;9.38;79.85
55604;BME280;41468;48.838;9.330;2023-04-25T04:52:48;97658.00;;;9.47;80.25
55604;BME280;41468;48.838;9.330;2023-04-25T04:55:15;97659.47;;;9.37;80.13
55604;BME280;41468;48.838;9.330;2023-04-25T04:57:41;97661.03;;;9.38;80.70
55604;BME280;41468;48.838;9.330;2023-04-25T05:00:13;97663.88;;;9.49;80.36
55604;BME280;41468;48.838;9.330;2023-04-25T05:02:40;97662.25;;;9.44;80.25
55604;BME280;41468;48.838;9.330;2023-04-25T05:05:07;97668.50;;;9.45;80.47
55604;BME280;41468;48.838;9.330;2023-04-25T05:07:34;97663.44;;;9.47;80.74
55604;BME280;41468;48.838;9.330;2023-04-25T05:10:06;97663.88;;;9.52;80.21
55604;BME280;41468;48.838;9.330;2023-04-25T05:12:33;97667.38;;;9.49;79.62
55604;BME280;41468;48.838;9.330;2023-04-25T05:15:02;97670.13;;;9.53;79.50
55604;BME280;41468;48.838;9.330;2023-04-25T05:17:29;97667.38;;;9.53;79.93
55604;BME280;41468;48.838;9.330;2023-04-25T05:19:56;97665.09;;;9.55;79.91
55604;BME280;41468;48.838;9.330;2023-04-25T05:22:22;97671.31;;;9.56;79.47
55604;BME280;41468;48.838;9.330;2023-04-25T05:24:49;97672.13;;;9.60;78.96
55604;BME280;41468;48.838;9.330;2023-04-25T05:27:21;97669.38;;;9.56;79.29
55604;BME280;41468;48.838;9.330;2023-04-25T05:29:48;97674.44;;;9.58;79.15
55604;BME280;41468;48.838;9.330;2023-04-25T05:32:14;97670.56;;;9.59;79.45
55604;BME280;41468;48.838;9.330;2023-04-25T05:34:41;97669.88;;;9.69;79.05
55604;BME280;41468;48.838;9.330;2023-04-25T05:37:08;97669.25;;;9.86;78.25
55604;BME280;41468;48.838;9.330;2023-04-25T05:39:35;97675.91;;;9.96;77.90
55604;BME280;41468;48.838;9.330;2023-04-25T05:42:02;97682.97;;;10.04;77.38
55604;BME280;41468;48.838;9.330;2023-04-25T05:44:30;97681.41;;;10.00;77.74
55604;BME280;41468;48.838;9.330;2023-04-25T05:46:57;97681.69;;;9.87;80.19
55604;BME280;41468;48.838;9.330;2023-04-25T05:49:24;97679.34;;;9.86;80.43
55604;BME280;41468;48.838;9.330;2023-04-25T05:51:51;97676.97;;;9.81;81.25
55604;BME280;41468;48.838;9.330;2023-04-25T05:54:17;97675.88;;;9.89;80.69
55604;BME280;41468;48.838;9.330;2023-04-25T05:56:44;97678.59;;;9.89;80.90
55604;BME280;41468;48.838;9.330;2023-04-25T05:59:11;97678.88;;;9.77;79.83
55604;BME280;41468;48.838;9.330;2023-04-25T06:01:38;97674.09;;;9.59;82.83
55604;BME280;41468;48.838;9.330;2023-04-25T06:04:04;97670.13;;;9.53;81.46
55604;BME280;41468;48.838;9.330;2023-04-25T06:06:32;97677.94;;;9.58;82.51
55604;BME280;41468;48.838;9.330;2023-04-25T06:08:58;97675.19;;;9.51;83.64
55604;BME280;41468;48.838;9.330;2023-04-25T06:11:25;97688.50;;;9.60;83.46
55604;BME280;41468;48.838;9.330;2023-04-25T06:13:52;97679.91;;;9.58;84.49
55604;BME280;41468;48.838;9.330;2023-04-25T06:16:19;97686.97;;;9.62;84.82
55604;BME280;41468;48.838;9.330;2023-04-25T06:18:46;97686.13;;;9.58;85.57
55604;BME280;41468;48.838;9.330;2023-04-25T06:21:23;97691.75;;;9.76;85.55
55604;BME280;41468;48.838;9.330;2023-04-25T06:23:49;97690.97;;;9.79;84.72
55604;BME280;41468;48.838;9.330;2023-04-25T06:26:17;97689.09;;;9.87;81.59
55604;BME280;41468;48.838;9.330;2023-04-25T06:28:43;97683.66;;;9.90;81.72
55604;BME280;41468;48.838;9.330;2023-04-25T06:31:10;97672.06;;;10.04;81.73
55604;BME280;41468;48.838;9.330;2023-04-25T06:33:37;97670.59;;;10.14;82.36
55604;BME280;41468;48.838;9.330;2023-04-25T06:36:04;97670.38;;;10.37;80.68
55604;BME280;41468;48.838;9.330;2023-04-25T06:38:31;97663.41;;;10.47;79.05
55604;BME280;41468;48.838;9.330;2023-04-25T06:40:57;97661.06;;;10.45;78.02
55604;BME280;41468;48.838;9.330;2023-04-25T06:43:24;97659.13;;;10.49;78.07
55604;BME280;41468;48.838;9.330;2023-04-25T06:45:51;97657.19;;;10.53;78.66
55604;BME280;41468;48.838;9.330;2023-04-25T06:48:18;97658.81;;;10.61;77.71
55604;BME280;41468;48.838;9.330;2023-04-25T06:50:44;97664.72;;;10.81;77.40
55604;BME280;41468;48.838;9.330;2023-04-25T06:53:11;97658.47;;;10.84;77.39
55604;BME280;41468;48.838;9.330;2023-04-25T06:55:38;97663.16;;;10.80;76.93
55604;BME280;41468;48.838;9.330;2023-04-25T06:58:04;97666.72;;;10.95;77.40
55604;BME280;41468;48.838;9.330;2023-04-25T07:00:31;97670.25;;;11.06;76.91
55604;BME280;41468;48.838;9.330;2023-04-25T07:02:58;97667.16;;;11.04;76.44
55604;BME280;41468;48.838;9.330;2023-04-25T07:05:26;97678.09;;;11.19;74.61
55604;BME280;41468;48.838;9.330;2023-04-25T07:07:52;97670.66;;;11.09;73.07
55604;BME280;41468;48.838;9.330;2023-04-25T07:10:19;97674.19;;;11.16;73.83
55604;BME280;41468;48.838;9.330;2023-04-25T07:12:47;97669.91;;;11.15;72.98
55604;BME280;41468;48.838;9.330;2023-04-25T07:15:14;97674.94;;;10.99;75.12
55604;BME280;41468;48.838;9.330;2023-04-25T07:17:41;97674.13;;;10.98;75.55
55604;BME280;41468;48.838;9.330;2023-04-25T07:20:08;97670.63;;;10.94;75.67
55604;BME280;41468;48.838;9.330;2023-04-25T07:22:35;97679.59;;;10.91;74.30
55604;BME280;41468;48.838;9.330;2023-04-25T07:25:02;97671.38;;;10.84;73.36
55604;BME280;41468;48.838;9.330;2023-04-25T07:27:30;97685.34;;;10.72;74.58
55604;BME280;41468;48.838;9.330;2023-04-25T07:29:57;97686.47;;;10.60;76.51
55604;BME280;41468;48.838;9.330;2023-04-25T07:32:25;97682.91;;;10.49;76.64
55604;BME280;41468;48.838;9.330;2023-04-25T07:34:52;97687.59;;;10.48;76.74
55604;BME280;41468;48.838;9.330;2023-04-25T07:37:19;97691.81;;;10.42;76.60
55604;BME280;41468;48.838;9.330;2023-04-25T07:39:45;97686.03;;;10.51;75.93
55604;BME280;41468;48.838;9.330;2023-04-25T07:42:13;97692.22;;;10.37;76.34
55604;BME280;41468;48.838;9.330;2023-04-25T07:44:40;97689.84;;;10.32;77.01
55604;BME280;41468;48.838;9.330;2023-04-25T07:47:08;97693.00;;;10.41;76.56
55604;BME280;41468;48.838;9.330;2023-04-25T07:49:36;97697.63;;;10.30;77.47
55604;BME280;41468;48.838;9.330;2023-04-25T07:52:04;97700.31;;;10.26;77.48
55604;BME280;41468;48.838;9.330;2023-04-25T07:54:32;97700.75;;;10.35;78.50
55604;BME280;41468;48.838;9.330;2023-04-25T07:56:59;97700.75;;;10.32;76.34
55604;BME280;41468;48.838;9.330;2023-04-25T07:59:26;97708.13;;;10.28;76.65
55604;BME280;41468;48.838;9.330;2023-04-25T08:01:55;97711.31;;;10.37;77.13
55604;BME280;41468;48.838;9.330;2023-04-25T08:04:24;97715.59;;;10.34;76.79
55604;BME280;41468;48.838;9.330;2023-04-25T08:06:52;97721.84;;;10.42;77.64
55604;BME280;41468;48.838;9.330;2023-04-25T08:09:20;97720.22;;;10.30;80.55
55604;BME280;41468;48.838;9.330;2023-04-25T08:11:48;97716.81;;;9.96;84.06
55604;BME280;41468;48.838;9.330;2023-04-25T08:14:14;97733.56;;;9.94;85.96
55604;BME280;41468;48.838;9.330;2023-04-25T08:16:41;97728.41;;;9.82;90.20
55604;BME280;41468;48.838;9.330;2023-04-25T08:19:09;97739.09;;;9.61;91.60
55604;BME280;41468;48.838;9.330;2023-04-25T08:21:36;97740.72;;;9.65;95.27
55604;BME280;41468;48.838;9.330;2023-04-25T08:24:08;97740.81;;;9.76;94.12
55604;BME280;41468;48.838;9.330;2023-04-25T08:26:39;97735.38;;;9.76;95.96
55604;BME280;41468;48.838;9.330;2023-04-25T08:29:07;97745.16;;;9.84;97.13
55604;BME280;41468;48.838;9.330;2023-04-25T08:31:33;97744.84;;;9.93;97.89
55604;BME280;41468;48.838;9.330;2023-04-25T08:34:00;97754.97;;;9.92;98.04
55604;BME280;41468;48.838;9.330;2023-04-25T08:36:27;97753.84;;;9.97;100.00
55604;BME280;41468;48.838;9.330;2023-04-25T08:38:58;97758.06;;;9.91;98.67
55604;BME280;41468;48.838;9.330;2023-04-25T08:41:26;97758.91;;;9.95;98.09
55604;BME280;41468;48.838;9.330;2023-04-25T08:43:55;97755.78;;;9.96;98.11
55604;BME280;41468;48.838;9.330;2023-04-25T08:46:23;97767.06;;;9.91;99.47
55604;BME280;41468;48.838;9.330;2023-04-25T08:48:53;97761.13;;;9.86;99.33
55604;BME280;41468;48.838;9.330;2023-04-25T08:51:23;97775.38;;;9.65;98.42
55604;BME280;41468;48.838;9.330;2023-04-25T08:53:52;97779.41;;;9.82;100.00
55604;BME280;41468;48.838;9.330;2023-04-25T08:56:23;97784.88;;;9.82;98.75
55604;BME280;41468;48.838;9.330;2023-04-25T08:58:50;97783.38;;;9.88;98.09
55604;BME280;41468;48.838;9.330;2023-04-25T09:01:18;97793.53;;;9.91;97.60
55604;BME280;41468;48.838;9.330;2023-04-25T09:03:45;97794.63;;;9.83;98.24
55604;BME280;41468;48.838;9.330;2023-04-25T09:06:13;97792.75;;;9.90;96.38
55604;BME280;41468;48.838;9.330;2023-04-25T09:08:42;97796.19;;;9.84;95.70
55604;BME280;41468;48.838;9.330;2023-04-25T09:11:13;97799.19;;;9.71;95.21
55604;BME280;41468;48.838;9.330;2023-04-25T09:13:41;97805.38;;;9.68;95.44
55604;BME280;41468;48.838;9.330;2023-04-25T09:16:07;97810.09;;;9.71;95.06
55604;BME280;41468;48.838;9.330;2023-04-25T09:18:34;97816.03;;;9.81;93.72
55604;BME280;41468;48.838;9.330;2023-04-25T09:21:09;97810.09;;;9.75;95.14
55604;BME280;41468;48.838;9.330;2023-04-25T09:23:47;97815.44;;;9.61;95.76
55604;BME280;41468;48.838;9.330;2023-04-25T09:26:17;97815.56;;;9.75;94.02
55604;BME280;41468;48.838;9.330;2023-04-25T09:28:44;97818.28;;;9.75;90.49
55604;BME280;41468;48.838;9.330;2023-04-25T09:31:12;97827.44;;;9.56;94.98
55604;BME280;41468;48.838;9.330;2023-04-25T09:33:40;97829.06;;;9.64;96.66
55604;BME280;41468;48.838;9.330;2023-04-25T09:36:08;97832.94;;;9.60;96.09
55604;BME280;41468;48.838;9.330;2023-04-25T09:38:45;97841.81;;;9.53;95.31
55604;BME280;41468;48.838;9.330;2023-04-25T09:41:12;97842.75;;;9.34;94.72
55604;BME280;41468;48.838;9.330;2023-04-25T09:43:39;97838.09;;;9.35;98.88
55604;BME280;41468;48.838;9.330;2023-04-25T09:46:09;97844.47;;;9.46;98.56
55604;BME280;41468;48.838;9.330;2023-04-25T09:48:37;97850.28;;;9.44;98.74
55604;BME280;41468;48.838;9.330;2023-04-25T09:53:37;97859.16;;;9.38;96.21
55604;BME280;41468;48.838;9.330;2023-04-25T09:56:06;97856.75;;;9.33;97.42
55604;BME280;41468;48.838;9.330;2023-04-25T09:58:44;97854.47;;;9.72;99.31
55604;BME280;41468;48.838;9.330;2023-04-25T10:01:10;97861.88;;;9.71;97.35
55604;BME280;41468;48.838;9.330;2023-04-25T10:03:38;97868.41;;;9.63;98.14
55604;BME280;41468;48.838;9.330;2023-04-25T10:06:12;97864.00;;;9.51;98.45
55604;BME280;41468;48.838;9.330;2023-04-25T10:08:41;97865.06;;;9.43;99.04
55604;BME280;41468;48.838;9.330;2023-04-25T10:11:20;97866.00;;;9.24;100.00
55604;BME280;41468;48.838;9.330;2023-04-25T10:13:50;97868.72;;;9.24;99.74
55604;BME280;41468;48.838;9.330;2023-04-25T10:16:21;97871.44;;;9.24;100.00
55604;BME280;41468;48.838;9.330;2023-04-25T10:18:49;97869.03;;;9.19;100.00
55604;BME280;41468;48.838;9.330;2023-04-25T10:21:17;97877.59;;;9.21;100.00
55604;BME280;41468;48.838;9.330;2023-04-25T10:23:44;97882.28;;;9.21;100.00
55604;BME280;41468;48.838;9.330;2023-04-25T10:26:12;97888.44;;;9.14;100.00
55604;BME280;41468;48.838;9.330;2023-04-25T10:29:01;97890.38;;;9.14;100.00
55604;BME280;41468;48.838;9.330;2023-04-25T10:31:30;97897.56;;;9.02;100.00
55604;BME280;41468;48.838;9.330;2023-04-25T10:33:59;97910.53;;;9.09;100.00
55604;BME280;41468;48.838;9.330;2023-04-25T10:36:31;97913.44;;;8.97;100.00
55604;BME280;41468;48.838;9.330;2023-04-25T10:39:03;97913.44;;;8.97;100.00
55604;BME280;41468;48.838;9.330;2023-04-25T10:41:46;97922.09;;;8.76;100.00
55604;BME280;41468;48.838;9.330;2023-04-25T10:44:13;97928.63;;;8.71;100.00
55604;BME280;41468;48.838;9.330;2023-04-25T10:46:40;97922.28;;;8.63;100.00
55604;BME280;41468;48.838;9.330;2023-04-25T10:49:07;97934.75;;;8.42;100.00
55604;BME280;41468;48.838;9.330;2023-04-25T10:51:36;97940.31;;;8.29;100.00
55604;BME280;41468;48.838;9.330;2023-04-25T10:54:17;97941.53;;;8.32;100.00
55604;BME280;41468;48.838;9.330;2023-04-25T10:56:44;97949.47;;;8.21;100.00
55604;BME280;41468;48.838;9.330;2023-04-25T10:59:15;97964.38;;;8.08;100.00
55604;BME280;41468;48.838;9.330;2023-04-25T11:01:47;97961.03;;;8.14;100.00
55604;BME280;41468;48.838;9.330;2023-04-25T11:07:18;97967.41;;;8.22;100.00
55604;BME280;41468;48.838;9.330;2023-04-25T11:09:50;97980.75;;;8.31;100.00
55604;BME280;41468;48.838;9.330;2023-04-25T11:12:16;97973.97;;;8.40;100.00
55604;BME280;41468;48.838;9.330;2023-04-25T11:14:43;97973.38;;;8.31;100.00
55604;BME280;41468;48.838;9.330;2023-04-25T11:17:10;97968.66;;;8.28;100.00
55604;BME280;41468;48.838;9.330;2023-04-25T11:19:48;97968.97;;;8.23;99.59
55604;BME280;41468;48.838;9.330;2023-04-25T11:22:15;97967.84;;;7.85;97.71
55604;BME280;41468;48.838;9.330;2023-04-25T11:24:42;97972.09;;;8.06;100.00
55604;BME280;41468;48.838;9.330;2023-04-25T11:27:09;97974.53;;;8.11;98.14
55604;BME280;41468;48.838;9.330;2023-04-25T11:29:36;97965.47;;;8.23;97.75
55604;BME280;41468;48.838;9.330;2023-04-25T11:32:03;97968.94;;;8.43;98.77
55604;BME280;41468;48.838;9.330;2023-04-25T11:34:31;97970.38;;;8.36;92.48
55604;BME280;41468;48.838;9.330;2023-04-25T11:37:00;97979.78;;;8.62;94.36
55604;BME280;41468;48.838;9.330;2023-04-25T11:39:29;97981.06;;;8.68;93.50
55604;BME280;41468;48.838;9.330;2023-04-25T11:41:56;97982.47;;;8.81;94.17
55604;BME280;41468;48.838;9.330;2023-04-25T11:44:24;97983.72;;;8.88;94.13
55604;BME280;41468;48.838;9.330;2023-04-25T11:46:50;97979.75;;;8.81;93.51
55604;BME280;41468;48.838;9.330;2023-04-25T11:49:17;97973.59;;;9.11;92.91
55604;BME280;41468;48.838;9.330;2023-04-25T11:51:46;97978.97;;;9.34;94.66
55604;BME280;41468;48.838;9.330;2023-04-25T11:54:14;97979.06;;;9.38;96.53
55604;BME280;41468;48.838;9.330;2023-04-25T11:56:47;97989.84;;;9.57;97.22
55604;BME280;41468;48.838;9.330;2023-04-25T11:59:14;97984.59;;;9.75;95.43
55604;BME280;41468;48.838;9.330;2023-04-25T12:01:48;97988.00;;;9.99;95.90
55604;BME280;41468;48.838;9.330;2023-04-25T12:04:17;97983.44;;;9.72;97.78
55604;BME280;41468;48.838;9.330;2023-04-25T12:06:45;98001.16;;;9.59;99.00
55604;BME280;41468;48.838;9.330;2023-04-25T12:09:17;97990.47;;;9.47;97.87
55604;BME280;41468;48.838;9.330;2023-04-25T12:11:52;97994.91;;;9.59;96.22
55604;BME280;41468;48.838;9.330;2023-04-25T12:14:30;97995.19;;;9.50;96.19
55604;BME280;41468;48.838;9.330;2023-04-25T12:17:00;97989.25;;;9.44;99.00
55604;BME280;41468;48.838;9.330;2023-04-25T12:19:34;97989.22;;;9.41;100.00
55604;BME280;41468;48.838;9.330;2023-04-25T12:22:02;98000.47;;;9.39;98.47
55604;BME280;41468;48.838;9.330;2023-04-25T12:24:33;97997.75;;;9.39;100.00
55604;BME280;41468;48.838;9.330;2023-04-25T12:27:05;98002.06;;;9.40;100.00
55604;BME280;41468;48.838;9.330;2023-04-25T12:29:34;97997.06;;;9.46;100.00
55604;BME280;41468;48.838;9.330;2023-04-25T12:32:15;98006.38;;;9.45;100.00
55604;BME280;41468;48.838;9.330;2023-04-25T12:34:42;97999.66;;;9.35;100.00
55604;BME280;41468;48.838;9.330;2023-04-25T12:37:09;98001.63;;;9.38;95.63
55604;BME280;41468;48.838;9.330;2023-04-25T12:39:36;98007.88;;;9.39;99.36
55604;BME280;41468;48.838;9.330;2023-04-25T12:42:03;98014.56;;;9.45;99.50
55604;BME280;41468;48.838;9.330;2023-04-25T12:44:34;98008.13;;;9.57;98.92
55604;BME280;41468;48.838;9.330;2023-04-25T12:47:05;98011.78;;;9.68;98.40
55604;BME280;41468;48.838;9.330;2023-04-25T12:49:44;98010.13;;;9.60;95.71
55604;BME280;41468;48.838;9.330;2023-04-25T12:52:11;98010.91;;;9.60;98.49
55604;BME280;41468;48.838;9.330;2023-04-25T12:54:38;98009.94;;;9.76;97.57
55604;BME280;41468;48.838;9.330;2023-04-25T12:57:05;98010.25;;;9.70;95.12
55604;BME280;41468;48.838;9.330;2023-04-25T12:59:31;98009.81;;;9.95;95.71
55604;BME280;41468;48.838;9.330;2023-04-25T13:01:58;98018.00;;;10.29;99.44
55604;BME280;41468;48.838;9.330;2023-04-25T13:04:25;98015.19;;;10.55;96.73
55604;BME280;41468;48.838;9.330;2023-04-25T13:06:52;98023.75;;;10.54;93.25
55604;BME280;41468;48.838;9.330;2023-04-25T13:09:19;98015.44;;;10.80;88.22
55604;BME280;41468;48.838;9.330;2023-04-25T13:11:46;98017.03;;;10.85;88.71
55604;BME280;41468;48.838;9.330;2023-04-25T13:14:13;98018.53;;;10.79;92.10
55604;BME280;41468;48.838;9.330;2023-04-25T13:16:40;98013.84;;;10.76;93.02